sensor_id;sensor_type;location;lat;lon;timestamp;P1;durP1;ratioP1;P2;durP2;ratioP2
17261;SDS011;9873;52.236;21.002;2023-05-07T00:00:13;7.70;;;4.87;;
17261;SDS011;9873;52.236;21.002;2023-05-07T00:10:19;6.33;;;4.03;;
17261;SDS011;9873;52.236;21.002;2023-05-07T00:20:27;7.60;;;4.10;;
17261;SDS011;9873;52.236;21.002;2023-05-07T00:30:31;7.70;;;4.77;;
17261;SDS011;9873;52.236;21.002;2023-05-07T00:40:36;7.37;;;3.13;;
17261;SDS011;9873;52.236;21.002;2023-05-07T00:50:38;8.73;;;5.53;;
17261;SDS011;9873;52.236;21.002;2023-05-07T01:00:41;7.67;;;4.53;;
17261;SDS011;9873;52.236;21.002;2023-05-07T01:10:46;6.77;;;3.63;;
17261;SDS011;9873;52.236;21.002;2023-05-07T01:20:48;5.20;;;3.50;;
17261;SDS011;9873;52.236;21.002;2023-05-07T01:30:57;7.10;;;4.47;;
17261;SDS011;9873;52.236;21.002;2023-05-07T01:41:10;5.67;;;3.67;;
17261;SDS011;9873;52.236;21.002;2023-05-07T01:51:16;4.97;;;3.50;;
17261;SDS011;9873;52.236;21.002;2023-05-07T02:01:20;6.67;;;4.77;;
17261;SDS011;9873;52.236;21.002;2023-05-07T02:11:27;3.70;;;2.57;;
17261;SDS011;9873;52.236;21.002;2023-05-07T02:21:35;7.50;;;4.63;;
17261;SDS011;9873;52.236;21.002;2023-05-07T02:31:40;2.47;;;1.80;;
17261;SDS011;9873;52.236;21.002;2023-05-07T02:41:44;4.67;;;3.47;;
17261;SDS011;9873;52.236;21.002;2023-05-07T02:51:49;2.53;;;1.83;;
17261;SDS011;9873;52.236;21.002;2023-05-07T03:01:56;2.13;;;1.90;;
17261;SDS011;9873;52.236;21.002;2023-05-07T03:11:58;5.17;;;3.50;;
17261;SDS011;9873;52.236;21.002;2023-05-07T03:22:03;2.50;;;2.30;;
17261;SDS011;9873;52.236;21.002;2023-05-07T03:32:06;6.07;;;4.30;;
17261;SDS011;9873;52.236;21.002;2023-05-07T03:42:11;3.37;;;2.47;;
17261;SDS011;9873;52.236;21.002;2023-05-07T03:52:17;6.53;;;3.83;;
17261;SDS011;9873;52.236;21.002;2023-05-07T04:02:24;4.73;;;2.97;;
17261;SDS011;9873;52.236;21.002;2023-05-07T04:12:35;3.87;;;2.40;;
17261;SDS011;9873;52.236;21.002;2023-05-07T04:22:43;4.97;;;3.47;;
17261;SDS011;9873;52.236;21.002;2023-05-07T04:32:48;4.97;;;3.00;;
17261;SDS011;9873;52.236;21.002;2023-05-07T04:42:56;5.77;;;3.90;;
17261;SDS011;9873;52.236;21.002;2023-05-07T04:53:03;5.03;;;4.10;;
17261;SDS011;9873;52.236;21.002;2023-05-07T05:03:07;5.40;;;4.20;;
17261;SDS011;9873;52.236;21.002;2023-05-07T05:13:12;4.67;;;3.43;;
17261;SDS011;9873;52.236;21.002;2023-05-07T05:23:16;4.97;;;4.00;;
17261;SDS011;9873;52.236;21.002;2023-05-07T05:33:21;4.00;;;3.00;;
17261;SDS011;9873;52.236;21.002;2023-05-07T05:43:23;4.43;;;3.20;;
17261;SDS011;9873;52.236;21.002;2023-05-07T05:53:30;4.33;;;2.50;;
17261;SDS011;9873;52.236;21.002;2023-05-07T06:03:35;3.20;;;2.87;;
17261;SDS011;9873;52.236;21.002;2023-05-07T06:13:41;3.23;;;2.93;;
17261;SDS011;9873;52.236;21.002;2023-05-07T06:23:46;2.70;;;2.00;;
17261;SDS011;9873;52.236;21.002;2023-05-07T06:33:53;2.77;;;2.10;;
17261;SDS011;9873;52.236;21.002;2023-05-07T06:44:01;2.70;;;2.17;;
17261;SDS011;9873;52.236;21.002;2023-05-07T06:54:10;3.27;;;2.60;;
17261;SDS011;9873;52.236;21.002;2023-05-07T07:04:15;2.63;;;1.90;;
17261;SDS011;9873;52.236;21.002;2023-05-07T07:14:23;2.20;;;1.73;;
17261;SDS011;9873;52.236;21.002;2023-05-07T07:24:27;2.33;;;1.43;;
17261;SDS011;9873;52.236;21.002;2023-05-07T07:34:34;2.77;;;1.93;;
17261;SDS011;9873;52.236;21.002;2023-05-07T07:44:40;2.50;;;2.07;;
17261;SDS011;9873;52.236;21.002;2023-05-07T07:54:44;2.30;;;1.80;;
17261;SDS011;9873;52.236;21.002;2023-05-07T08:04:49;1.33;;;1.17;;
17261;SDS011;9873;52.236;21.002;2023-05-07T08:14:54;2.43;;;1.87;;
17261;SDS011;9873;52.236;21.002;2023-05-07T08:24:59;3.53;;;2.50;;
17261;SDS011;9873;52.236;21.002;2023-05-07T08:35:02;3.13;;;2.07;;
17261;SDS011;9873;52.236;21.002;2023-05-07T08:45:08;1.93;;;1.20;;
17261;SDS011;9873;52.236;21.002;2023-05-07T08:55:15;2.87;;;1.70;;
17261;SDS011;9873;52.236;21.002;2023-05-07T09:05:19;2.97;;;1.87;;
17261;SDS011;9873;52.236;21.002;2023-05-07T09:15:24;1.13;;;0.90;;
17261;SDS011;9873;52.236;21.002;2023-05-07T09:25:32;3.00;;;1.87;;
17261;SDS011;9873;52.236;21.002;2023-05-07T09:35:55;2.47;;;1.73;;
17261;SDS011;9873;52.236;21.002;2023-05-07T09:46:12;2.10;;;1.23;;
17261;SDS011;9873;52.236;21.002;2023-05-07T09:56:23;1.97;;;1.70;;
17261;SDS011;9873;52.236;21.002;2023-05-07T10:06:26;2.23;;;1.03;;
17261;SDS011;9873;52.236;21.002;2023-05-07T10:16:31;2.30;;;1.70;;
17261;SDS011;9873;52.236;21.002;2023-05-07T10:26:43;2.17;;;1.60;;
17261;SDS011;9873;52.236;21.002;2023-05-07T10:36:50;1.30;;;1.00;;
17261;SDS011;9873;52.236;21.002;2023-05-07T10:47:07;2.43;;;1.40;;
17261;SDS011;9873;52.236;21.002;2023-05-07T10:57:35;2.63;;;1.47;;
17261;SDS011;9873;52.236;21.002;2023-05-07T11:07:58;1.30;;;1.10;;
17261;SDS011;9873;52.236;21.002;2023-05-07T11:18:12;2.57;;;2.20;;
17261;SDS011;9873;52.236;21.002;2023-05-07T11:28:25;2.60;;;1.70;;
17261;SDS011;9873;52.236;21.002;2023-05-07T11:38:37;1.73;;;1.63;;
17261;SDS011;9873;52.236;21.002;2023-05-07T11:48:40;1.27;;;1.17;;
17261;SDS011;9873;52.236;21.002;2023-05-07T11:58:48;2.00;;;1.30;;
17261;SDS011;9873;52.236;21.002;2023-05-07T12:08:50;2.40;;;1.60;;
17261;SDS011;9873;52.236;21.002;2023-05-07T12:18:53;1.60;;;1.50;;
17261;SDS011;9873;52.236;21.002;2023-05-07T12:28:57;2.03;;;1.60;;
17261;SDS011;9873;52.236;21.002;2023-05-07T12:39:00;2.80;;;1.73;;
17261;SDS011;9873;52.236;21.002;2023-05-07T12:49:03;4.93;;;1.83;;
17261;SDS011;9873;52.236;21.002;2023-05-07T12:59:07;2.80;;;1.70;;
17261;SDS011;9873;52.236;21.002;2023-05-07T13:09:11;1.03;;;0.87;;
17261;SDS011;9873;52.236;21.002;2023-05-07T13:19:15;2.73;;;1.63;;
17261;SDS011;9873;52.236;21.002;2023-05-07T13:29:20;2.17;;;1.43;;
17261;SDS011;9873;52.236;21.002;2023-05-07T13:39:27;2.07;;;1.10;;
17261;SDS011;9873;52.236;21.002;2023-05-07T13:49:32;1.83;;;1.40;;
17261;SDS011;9873;52.236;21.002;2023-05-07T13:59:35;3.03;;;1.13;;
17261;SDS011;9873;52.236;21.002;2023-05-07T14:09:42;2.03;;;1.40;;
17261;SDS011;9873;52.236;21.002;2023-05-07T14:19:44;1.53;;;1.43;;
17261;SDS011;9873;52.236;21.002;2023-05-07T14:29:49;1.85;;;1.20;;
17261;SDS011;9873;52.236;21.002;2023-05-07T14:39:53;2.40;;;1.27;;
17261;SDS011;9873;52.236;21.002;2023-05-07T14:49:56;2.90;;;2.17;;
17261;SDS011;9873;52.236;21.002;2023-05-07T15:00:05;1.80;;;1.40;;
17261;SDS011;9873;52.236;21.002;2023-05-07T15:10:11;3.70;;;1.40;;
17261;SDS011;9873;52.236;21.002;2023-05-07T15:20:17;2.70;;;1.70;;
17261;SDS011;9873;52.236;21.002;2023-05-07T15:30:25;4.20;;;1.80;;
17261;SDS011;9873;52.236;21.002;2023-05-07T15:40:30;3.73;;;1.60;;
17261;SDS011;9873;52.236;21.002;2023-05-07T15:50:33;1.97;;;1.50;;
17261;SDS011;9873;52.236;21.002;2023-05-07T16:00:37;1.73;;;1.60;;
17261;SDS011;9873;52.236;21.002;2023-05-07T16:10:44;3.53;;;1.60;;
17261;SDS011;9873;52.236;21.002;2023-05-07T16:20:46;2.70;;;1.63;;
17261;SDS011;9873;52.236;21.002;2023-05-07T16:30:48;3.90;;;2.05;;
17261;SDS011;9873;52.236;21.002;2023-05-07T16:40:51;1.90;;;1.60;;
17261;SDS011;9873;52.236;21.002;2023-05-07T16:50:53;2.90;;;1.90;;
17261;SDS011;9873;52.236;21.002;2023-05-07T17:01:04;3.17;;;2.30;;
17261;SDS011;9873;52.236;21.002;2023-05-07T17:11:09;2.30;;;2.03;;
17261;SDS011;9873;52.236;21.002;2023-05-07T17:21:13;3.00;;;1.70;;
17261;SDS011;9873;52.236;21.002;2023-05-07T17:31:18;3.30;;;2.07;;
17261;SDS011;9873;52.236;21.002;2023-05-07T17:41:20;2.78;;;2.10;;
17261;SDS011;9873;52.236;21.002;2023-05-07T17:51:27;2.83;;;2.03;;
17261;SDS011;9873;52.236;21.002;2023-05-07T18:01:41;3.97;;;2.00;;
17261;SDS011;9873;52.236;21.002;2023-05-07T18:11:50;6.17;;;2.40;;
17261;SDS011;9873;52.236;21.002;2023-05-07T18:21:59;2.30;;;2.10;;
17261;SDS011;9873;52.236;21.002;2023-05-07T18:32:04;5.10;;;3.07;;
17261;SDS011;9873;52.236;21.002;2023-05-07T18:42:12;5.40;;;2.90;;
17261;SDS011;9873;52.236;21.002;2023-05-07T18:52:19;5.30;;;2.73;;
17261;SDS011;9873;52.236;21.002;2023-05-07T19:02:22;8.73;;;2.60;;
17261;SDS011;9873;52.236;21.002;2023-05-07T19:12:27;6.73;;;2.87;;
17261;SDS011;9873;52.236;21.002;2023-05-07T19:22:33;4.57;;;2.70;;
17261;SDS011;9873;52.236;21.002;2023-05-07T19:32:40;5.07;;;2.97;;
17261;SDS011;9873;52.236;21.002;2023-05-07T19:42:44;5.47;;;2.70;;
17261;SDS011;9873;52.236;21.002;2023-05-07T19:52:47;4.17;;;2.43;;
17261;SDS011;9873;52.236;21.002;2023-05-07T20:02:51;4.10;;;3.10;;
17261;SDS011;9873;52.236;21.002;2023-05-07T20:12:56;3.57;;;1.80;;
17261;SDS011;9873;52.236;21.002;2023-05-07T20:22:58;4.27;;;2.73;;
17261;SDS011;9873;52.236;21.002;2023-05-07T20:33:03;4.07;;;2.37;;
17261;SDS011;9873;52.236;21.002;2023-05-07T20:43:08;3.60;;;2.60;;
17261;SDS011;9873;52.236;21.002;2023-05-07T20:53:13;4.27;;;3.00;;
17261;SDS011;9873;52.236;21.002;2023-05-07T21:03:18;5.60;;;3.40;;
17261;SDS011;9873;52.236;21.002;2023-05-07T21:13:27;4.77;;;3.10;;
17261;SDS011;9873;52.236;21.002;2023-05-07T21:23:32;6.23;;;3.60;;
17261;SDS011;9873;52.236;21.002;2023-05-07T21:33:34;6.40;;;4.10;;
17261;SDS011;9873;52.236;21.002;2023-05-07T21:43:38;6.17;;;4.23;;
17261;SDS011;9873;52.236;21.002;2023-05-07T21:53:40;7.40;;;4.87;;
17261;SDS011;9873;52.236;21.002;2023-05-07T22:03:45;5.53;;;3.93;;
17261;SDS011;9873;52.236;21.002;2023-05-07T22:13:50;7.53;;;4.63;;
17261;SDS011;9873;52.236;21.002;2023-05-07T22:23:54;8.70;;;4.83;;
17261;SDS011;9873;52.236;21.002;2023-05-07T22:33:56;7.30;;;4.53;;
17261;SDS011;9873;52.236;21.002;2023-05-07T22:44:04;7.90;;;4.10;;
17261;SDS011;9873;52.236;21.002;2023-05-07T22:54:11;7.83;;;4.07;;
17261;SDS011;9873;52.236;21.002;2023-05-07T23:04:19;6.33;;;3.83;;
17261;SDS011;9873;52.236;21.002;2023-05-07T23:14:23;5.00;;;3.40;;
17261;SDS011;9873;52.236;21.002;2023-05-07T23:24:28;4.57;;;3.27;;
17261;SDS011;9873;52.236;21.002;2023-05-07T23:34:30;5.13;;;3.47;;
17261;SDS011;9873;52.236;21.002;2023-05-07T23:44:34;5.50;;;4.00;;
17261;SDS011;9873;52.236;21.002;2023-05-07T23:54:37;6.70;;;3.70;;
